sensor_id;sensor_type;location;lat;lon;timestamp;P1;durP1;ratioP1;P2;durP2;ratioP2
63312;SDS011;49442;45.640;13.812;2024-01-11T00:02:23;18.13;;;9.27;;
63312;SDS011;49442;45.640;13.812;2024-01-11T00:04:49;19.10;;;9.60;;
63312;SDS011;49442;45.640;13.812;2024-01-11T00:07:18;16.95;;;9.57;;
63312;SDS011;49442;45.640;13.812;2024-01-11T00:09:44;16.77;;;9.18;;
63312;SDS011;49442;45.640;13.812;2024-01-11T00:12:10;16.85;;;10.18;;
63312;SDS011;49442;45.640;13.812;2024-01-11T00:14:36;14.07;;;8.18;;
63312;SDS011;49442;45.640;13.812;2024-01-11T00:17:01;21.50;;;9.75;;
63312;SDS011;49442;45.640;13.812;2024-01-11T00:19:27;15.63;;;9.13;;
63312;SDS011;49442;45.640;13.812;2024-01-11T00:21:54;18.45;;;8.73;;
63312;SDS011;49442;45.640;13.812;2024-01-11T00:24:19;15.43;;;8.35;;
63312;SDS011;49442;45.640;13.812;2024-01-11T00:26:45;16.58;;;8.98;;
63312;SDS011;49442;45.640;13.812;2024-01-11T00:29:11;17.05;;;8.35;;
63312;SDS011;49442;45.640;13.812;2024-01-11T00:31:36;14.65;;;8.77;;
63312;SDS011;49442;45.640;13.812;2024-01-11T00:34:03;18.40;;;8.65;;
63312;SDS011;49442;45.640;13.812;2024-01-11T00:36:29;15.07;;;8.45;;
63312;SDS011;49442;45.640;13.812;2024-01-11T00:38:55;15.68;;;9.32;;
63312;SDS011;49442;45.640;13.812;2024-01-11T00:41:21;13.95;;;8.35;;
63312;SDS011;49442;45.640;13.812;2024-01-11T00:43:47;16.13;;;8.52;;
63312;SDS011;49442;45.640;13.812;2024-01-11T00:46:12;17.75;;;8.70;;
63312;SDS011;49442;45.640;13.812;2024-01-11T00:48:38;15.10;;;8.52;;
63312;SDS011;49442;45.640;13.812;2024-01-11T00:51:04;11.02;;;7.28;;
63312;SDS011;49442;45.640;13.812;2024-01-11T00:53:30;14.82;;;8.05;;
63312;SDS011;49442;45.640;13.812;2024-01-11T00:55:57;19.73;;;8.82;;
63312;SDS011;49442;45.640;13.812;2024-01-11T00:58:25;14.15;;;8.00;;
63312;SDS011;49442;45.640;13.812;2024-01-11T01:00:51;10.90;;;6.90;;
63312;SDS011;49442;45.640;13.812;2024-01-11T01:03:20;14.15;;;7.45;;
63312;SDS011;49442;45.640;13.812;2024-01-11T01:05:47;14.38;;;7.75;;
63312;SDS011;49442;45.640;13.812;2024-01-11T01:08:12;14.13;;;8.05;;
63312;SDS011;49442;45.640;13.812;2024-01-11T01:10:39;15.00;;;6.53;;
63312;SDS011;49442;45.640;13.812;2024-01-11T01:13:05;13.23;;;7.85;;
63312;SDS011;49442;45.640;13.812;2024-01-11T01:15:30;11.13;;;6.65;;
63312;SDS011;49442;45.640;13.812;2024-01-11T01:17:56;12.57;;;7.20;;
63312;SDS011;49442;45.640;13.812;2024-01-11T01:20:22;10.82;;;7.22;;
63312;SDS011;49442;45.640;13.812;2024-01-11T01:22:49;12.70;;;6.85;;
63312;SDS011;49442;45.640;13.812;2024-01-11T01:25:14;14.38;;;7.13;;
63312;SDS011;49442;45.640;13.812;2024-01-11T01:27:40;11.45;;;6.35;;
63312;SDS011;49442;45.640;13.812;2024-01-11T01:30:06;10.93;;;6.95;;
63312;SDS011;49442;45.640;13.812;2024-01-11T01:32:33;14.93;;;7.47;;
63312;SDS011;49442;45.640;13.812;2024-01-11T01:34:59;17.73;;;5.88;;
63312;SDS011;49442;45.640;13.812;2024-01-11T01:37:25;12.20;;;6.68;;
63312;SDS011;49442;45.640;13.812;2024-01-11T01:39:51;13.38;;;6.72;;
63312;SDS011;49442;45.640;13.812;2024-01-11T01:42:17;12.32;;;6.63;;
63312;SDS011;49442;45.640;13.812;2024-01-11T01:44:42;11.48;;;6.38;;
63312;SDS011;49442;45.640;13.812;2024-01-11T01:47:08;11.73;;;6.38;;
63312;SDS011;49442;45.640;13.812;2024-01-11T01:49:37;10.10;;;6.03;;
63312;SDS011;49442;45.640;13.812;2024-01-11T01:52:03;10.40;;;5.93;;
63312;SDS011;49442;45.640;13.812;2024-01-11T01:54:30;9.98;;;5.90;;
63312;SDS011;49442;45.640;13.812;2024-01-11T01:56:57;11.35;;;5.93;;
63312;SDS011;49442;45.640;13.812;2024-01-11T01:59:24;13.35;;;6.10;;
63312;SDS011;49442;45.640;13.812;2024-01-11T02:01:52;9.32;;;5.88;;
63312;SDS011;49442;45.640;13.812;2024-01-11T02:04:18;10.00;;;5.72;;
63312;SDS011;49442;45.640;13.812;2024-01-11T02:06:44;11.18;;;6.32;;
63312;SDS011;49442;45.640;13.812;2024-01-11T02:09:12;9.80;;;5.80;;
63312;SDS011;49442;45.640;13.812;2024-01-11T02:11:38;9.57;;;6.25;;
63312;SDS011;49442;45.640;13.812;2024-01-11T02:14:05;9.85;;;5.90;;
63312;SDS011;49442;45.640;13.812;2024-01-11T02:16:32;11.23;;;6.05;;
63312;SDS011;49442;45.640;13.812;2024-01-11T02:18:58;10.18;;;5.97;;
63312;SDS011;49442;45.640;13.812;2024-01-11T02:21:24;10.88;;;5.60;;
63312;SDS011;49442;45.640;13.812;2024-01-11T02:26:28;8.85;;;5.82;;
63312;SDS011;49442;45.640;13.812;2024-01-11T02:28:54;11.90;;;5.93;;
63312;SDS011;49442;45.640;13.812;2024-01-11T02:31:19;9.52;;;5.93;;
63312;SDS011;49442;45.640;13.812;2024-01-11T02:33:45;9.60;;;5.47;;
63312;SDS011;49442;45.640;13.812;2024-01-11T02:36:12;12.38;;;6.00;;
63312;SDS011;49442;45.640;13.812;2024-01-11T02:38:38;8.65;;;5.60;;
63312;SDS011;49442;45.640;13.812;2024-01-11T02:41:07;14.35;;;6.60;;
63312;SDS011;49442;45.640;13.812;2024-01-11T02:43:33;10.82;;;6.20;;
63312;SDS011;49442;45.640;13.812;2024-01-11T02:46:01;9.85;;;5.30;;
63312;SDS011;49442;45.640;13.812;2024-01-11T02:48:30;15.07;;;5.72;;
63312;SDS011;49442;45.640;13.812;2024-01-11T02:50:56;10.60;;;5.93;;
63312;SDS011;49442;45.640;13.812;2024-01-11T02:53:23;9.45;;;5.85;;
63312;SDS011;49442;45.640;13.812;2024-01-11T02:55:49;10.02;;;5.90;;
63312;SDS011;49442;45.640;13.812;2024-01-11T02:58:15;13.20;;;6.03;;
63312;SDS011;49442;45.640;13.812;2024-01-11T03:00:41;10.55;;;6.43;;
63312;SDS011;49442;45.640;13.812;2024-01-11T03:03:07;13.68;;;5.90;;
63312;SDS011;49442;45.640;13.812;2024-01-11T03:05:33;13.38;;;6.53;;
63312;SDS011;49442;45.640;13.812;2024-01-11T03:07:58;13.38;;;6.80;;
63312;SDS011;49442;45.640;13.812;2024-01-11T03:10:24;11.35;;;6.05;;
63312;SDS011;49442;45.640;13.812;2024-01-11T03:12:50;11.07;;;6.15;;
63312;SDS011;49442;45.640;13.812;2024-01-11T03:15:16;11.68;;;6.40;;
63312;SDS011;49442;45.640;13.812;2024-01-11T03:17:41;10.02;;;5.55;;
63312;SDS011;49442;45.640;13.812;2024-01-11T03:20:07;12.15;;;6.63;;
63312;SDS011;49442;45.640;13.812;2024-01-11T03:22:33;8.63;;;5.30;;
63312;SDS011;49442;45.640;13.812;2024-01-11T03:24:59;10.20;;;5.85;;
63312;SDS011;49442;45.640;13.812;2024-01-11T03:27:25;13.05;;;6.25;;
63312;SDS011;49442;45.640;13.812;2024-01-11T03:29:50;13.02;;;7.30;;
63312;SDS011;49442;45.640;13.812;2024-01-11T03:32:16;14.57;;;6.63;;
63312;SDS011;49442;45.640;13.812;2024-01-11T03:34:42;11.98;;;6.43;;
63312;SDS011;49442;45.640;13.812;2024-01-11T03:37:08;10.68;;;6.70;;
63312;SDS011;49442;45.640;13.812;2024-01-11T03:39:34;10.23;;;6.18;;
63312;SDS011;49442;45.640;13.812;2024-01-11T03:42:00;12.05;;;6.38;;
63312;SDS011;49442;45.640;13.812;2024-01-11T03:44:26;10.40;;;6.50;;
63312;SDS011;49442;45.640;13.812;2024-01-11T03:46:51;10.77;;;6.07;;
63312;SDS011;49442;45.640;13.812;2024-01-11T03:49:17;10.90;;;6.50;;
63312;SDS011;49442;45.640;13.812;2024-01-11T03:51:43;10.73;;;5.90;;
63312;SDS011;49442;45.640;13.812;2024-01-11T03:54:09;11.60;;;6.35;;
63312;SDS011;49442;45.640;13.812;2024-01-11T03:56:38;9.48;;;5.63;;
63312;SDS011;49442;45.640;13.812;2024-01-11T03:59:04;10.90;;;6.05;;
63312;SDS011;49442;45.640;13.812;2024-01-11T04:01:31;9.70;;;5.47;;
63312;SDS011;49442;45.640;13.812;2024-01-11T04:03:57;10.35;;;5.13;;
63312;SDS011;49442;45.640;13.812;2024-01-11T04:06:23;10.23;;;5.65;;
63312;SDS011;49442;45.640;13.812;2024-01-11T04:08:49;7.60;;;4.72;;
63312;SDS011;49442;45.640;13.812;2024-01-11T04:11:16;7.47;;;4.63;;
63312;SDS011;49442;45.640;13.812;2024-01-11T04:13:42;6.80;;;4.60;;
63312;SDS011;49442;45.640;13.812;2024-01-11T04:16:08;8.88;;;4.63;;
63312;SDS011;49442;45.640;13.812;2024-01-11T04:18:34;10.38;;;5.25;;
63312;SDS011;49442;45.640;13.812;2024-01-11T04:21:00;7.00;;;4.80;;
63312;SDS011;49442;45.640;13.812;2024-01-11T04:23:25;8.35;;;4.25;;
63312;SDS011;49442;45.640;13.812;2024-01-11T04:25:51;7.13;;;4.55;;
63312;SDS011;49442;45.640;13.812;2024-01-11T04:28:17;10.48;;;4.88;;
63312;SDS011;49442;45.640;13.812;2024-01-11T04:30:43;8.18;;;4.30;;
63312;SDS011;49442;45.640;13.812;2024-01-11T04:33:09;7.35;;;4.32;;
63312;SDS011;49442;45.640;13.812;2024-01-11T04:35:35;12.23;;;5.03;;
63312;SDS011;49442;45.640;13.812;2024-01-11T04:38:01;7.28;;;4.30;;
63312;SDS011;49442;45.640;13.812;2024-01-11T04:40:27;7.93;;;4.85;;
63312;SDS011;49442;45.640;13.812;2024-01-11T04:42:52;9.73;;;4.97;;
63312;SDS011;49442;45.640;13.812;2024-01-11T04:45:18;9.40;;;4.88;;
63312;SDS011;49442;45.640;13.812;2024-01-11T04:47:44;7.97;;;4.72;;
63312;SDS011;49442;45.640;13.812;2024-01-11T04:50:09;8.30;;;5.07;;
63312;SDS011;49442;45.640;13.812;2024-01-11T04:52:35;11.98;;;4.90;;
63312;SDS011;49442;45.640;13.812;2024-01-11T04:55:01;9.00;;;4.93;;
63312;SDS011;49442;45.640;13.812;2024-01-11T04:57:27;9.52;;;5.20;;
63312;SDS011;49442;45.640;13.812;2024-01-11T04:59:53;8.40;;;5.43;;
63312;SDS011;49442;45.640;13.812;2024-01-11T05:02:21;10.60;;;6.55;;
63312;SDS011;49442;45.640;13.812;2024-01-11T05:04:47;8.85;;;5.18;;
63312;SDS011;49442;45.640;13.812;2024-01-11T05:07:13;10.02;;;6.18;;
63312;SDS011;49442;45.640;13.812;2024-01-11T05:09:39;9.82;;;5.13;;
63312;SDS011;49442;45.640;13.812;2024-01-11T05:12:05;9.27;;;5.18;;
63312;SDS011;49442;45.640;13.812;2024-01-11T05:14:31;9.40;;;4.82;;
63312;SDS011;49442;45.640;13.812;2024-01-11T05:16:56;9.57;;;5.18;;
63312;SDS011;49442;45.640;13.812;2024-01-11T05:19:22;8.98;;;4.85;;
63312;SDS011;49442;45.640;13.812;2024-01-11T05:21:48;12.75;;;4.72;;
63312;SDS011;49442;45.640;13.812;2024-01-11T05:24:14;8.43;;;5.20;;
63312;SDS011;49442;45.640;13.812;2024-01-11T05:26:39;9.43;;;4.97;;
63312;SDS011;49442;45.640;13.812;2024-01-11T05:29:05;9.23;;;5.13;;
63312;SDS011;49442;45.640;13.812;2024-01-11T05:31:31;9.68;;;5.28;;
63312;SDS011;49442;45.640;13.812;2024-01-11T05:33:57;9.23;;;4.97;;
63312;SDS011;49442;45.640;13.812;2024-01-11T05:36:22;9.13;;;5.38;;
63312;SDS011;49442;45.640;13.812;2024-01-11T05:38:48;7.75;;;4.65;;
63312;SDS011;49442;45.640;13.812;2024-01-11T05:41:14;9.02;;;4.80;;
63312;SDS011;49442;45.640;13.812;2024-01-11T05:43:40;8.20;;;4.93;;
63312;SDS011;49442;45.640;13.812;2024-01-11T05:46:06;8.32;;;4.05;;
63312;SDS011;49442;45.640;13.812;2024-01-11T05:48:32;7.40;;;3.88;;
63312;SDS011;49442;45.640;13.812;2024-01-11T05:50:58;8.50;;;5.25;;
63312;SDS011;49442;45.640;13.812;2024-01-11T05:53:24;7.43;;;4.38;;
63312;SDS011;49442;45.640;13.812;2024-01-11T05:55:52;7.90;;;4.50;;
63312;SDS011;49442;45.640;13.812;2024-01-11T05:58:18;9.45;;;4.82;;
63312;SDS011;49442;45.640;13.812;2024-01-11T06:00:44;12.20;;;4.82;;
63312;SDS011;49442;45.640;13.812;2024-01-11T06:03:13;9.68;;;4.78;;
63312;SDS011;49442;45.640;13.812;2024-01-11T06:05:40;8.65;;;4.85;;
63312;SDS011;49442;45.640;13.812;2024-01-11T06:08:05;10.25;;;4.78;;
63312;SDS011;49442;45.640;13.812;2024-01-11T06:10:31;7.22;;;4.30;;
63312;SDS011;49442;45.640;13.812;2024-01-11T06:12:57;7.75;;;3.97;;
63312;SDS011;49442;45.640;13.812;2024-01-11T06:15:23;5.97;;;3.97;;
63312;SDS011;49442;45.640;13.812;2024-01-11T06:17:49;10.32;;;4.85;;
63312;SDS011;49442;45.640;13.812;2024-01-11T06:20:15;9.80;;;5.13;;
63312;SDS011;49442;45.640;13.812;2024-01-11T06:22:41;8.70;;;4.88;;
63312;SDS011;49442;45.640;13.812;2024-01-11T06:25:07;6.97;;;4.30;;
63312;SDS011;49442;45.640;13.812;2024-01-11T06:27:32;7.15;;;4.53;;
63312;SDS011;49442;45.640;13.812;2024-01-11T06:29:58;7.32;;;4.22;;
63312;SDS011;49442;45.640;13.812;2024-01-11T06:32:24;8.90;;;5.07;;
63312;SDS011;49442;45.640;13.812;2024-01-11T06:34:50;7.88;;;4.68;;
63312;SDS011;49442;45.640;13.812;2024-01-11T06:37:16;9.23;;;4.70;;
63312;SDS011;49442;45.640;13.812;2024-01-11T06:39:42;6.43;;;3.92;;
63312;SDS011;49442;45.640;13.812;2024-01-11T06:42:07;8.57;;;4.53;;
63312;SDS011;49442;45.640;13.812;2024-01-11T06:44:33;9.40;;;4.90;;
63312;SDS011;49442;45.640;13.812;2024-01-11T06:46:59;9.50;;;6.25;;
63312;SDS011;49442;45.640;13.812;2024-01-11T06:49:26;10.57;;;5.40;;
63312;SDS011;49442;45.640;13.812;2024-01-11T06:51:52;8.82;;;5.43;;
63312;SDS011;49442;45.640;13.812;2024-01-11T06:54:18;8.63;;;5.47;;
63312;SDS011;49442;45.640;13.812;2024-01-11T06:56:43;10.23;;;5.95;;
63312;SDS011;49442;45.640;13.812;2024-01-11T06:59:09;7.50;;;4.50;;
63312;SDS011;49442;45.640;13.812;2024-01-11T07:01:35;9.23;;;5.10;;
63312;SDS011;49442;45.640;13.812;2024-01-11T07:04:01;9.80;;;5.72;;
63312;SDS011;49442;45.640;13.812;2024-01-11T07:06:26;6.72;;;4.38;;
63312;SDS011;49442;45.640;13.812;2024-01-11T07:08:52;8.68;;;5.00;;
63312;SDS011;49442;45.640;13.812;2024-01-11T07:11:18;8.07;;;4.80;;
63312;SDS011;49442;45.640;13.812;2024-01-11T07:13:44;8.20;;;4.72;;
63312;SDS011;49442;45.640;13.812;2024-01-11T07:16:10;7.38;;;4.40;;
63312;SDS011;49442;45.640;13.812;2024-01-11T07:18:36;8.60;;;4.85;;
63312;SDS011;49442;45.640;13.812;2024-01-11T07:21:02;9.55;;;5.00;;
63312;SDS011;49442;45.640;13.812;2024-01-11T07:23:28;8.73;;;5.20;;
63312;SDS011;49442;45.640;13.812;2024-01-11T07:25:54;8.02;;;4.57;;
63312;SDS011;49442;45.640;13.812;2024-01-11T07:28:19;9.45;;;4.93;;
63312;SDS011;49442;45.640;13.812;2024-01-11T07:30:50;10.07;;;5.68;;
63312;SDS011;49442;45.640;13.812;2024-01-11T07:33:17;9.63;;;5.45;;
63312;SDS011;49442;45.640;13.812;2024-01-11T07:35:43;7.05;;;4.30;;
63312;SDS011;49442;45.640;13.812;2024-01-11T07:38:08;7.85;;;4.50;;
63312;SDS011;49442;45.640;13.812;2024-01-11T07:40:34;8.98;;;4.45;;
63312;SDS011;49442;45.640;13.812;2024-01-11T07:43:00;8.73;;;4.60;;
63312;SDS011;49442;45.640;13.812;2024-01-11T07:45:25;8.02;;;4.78;;
63312;SDS011;49442;45.640;13.812;2024-01-11T07:47:51;7.97;;;4.57;;
63312;SDS011;49442;45.640;13.812;2024-01-11T07:50:17;13.43;;;7.53;;
63312;SDS011;49442;45.640;13.812;2024-01-11T07:52:43;19.17;;;8.82;;
63312;SDS011;49442;45.640;13.812;2024-01-11T07:55:10;12.25;;;6.72;;
63312;SDS011;49442;45.640;13.812;2024-01-11T07:57:37;11.30;;;5.20;;
63312;SDS011;49442;45.640;13.812;2024-01-11T08:00:06;9.70;;;5.13;;
63312;SDS011;49442;45.640;13.812;2024-01-11T08:02:33;9.48;;;5.43;;
63312;SDS011;49442;45.640;13.812;2024-01-11T08:04:59;7.72;;;4.13;;
63312;SDS011;49442;45.640;13.812;2024-01-11T08:07:25;6.72;;;4.07;;
63312;SDS011;49442;45.640;13.812;2024-01-11T08:09:54;7.30;;;4.00;;
63312;SDS011;49442;45.640;13.812;2024-01-11T08:12:20;6.57;;;3.92;;
63312;SDS011;49442;45.640;13.812;2024-01-11T08:14:46;8.20;;;4.15;;
63312;SDS011;49442;45.640;13.812;2024-01-11T08:17:13;6.65;;;4.07;;
63312;SDS011;49442;45.640;13.812;2024-01-11T08:19:39;8.32;;;4.05;;
63312;SDS011;49442;45.640;13.812;2024-01-11T08:22:05;7.13;;;3.60;;
63312;SDS011;49442;45.640;13.812;2024-01-11T08:24:31;8.27;;;3.80;;
63312;SDS011;49442;45.640;13.812;2024-01-11T08:26:57;6.80;;;3.80;;
63312;SDS011;49442;45.640;13.812;2024-01-11T08:29:23;7.75;;;4.82;;
63312;SDS011;49442;45.640;13.812;2024-01-11T08:31:49;8.65;;;4.45;;
63312;SDS011;49442;45.640;13.812;2024-01-11T08:34:15;7.18;;;4.22;;
63312;SDS011;49442;45.640;13.812;2024-01-11T08:36:41;7.63;;;4.07;;
63312;SDS011;49442;45.640;13.812;2024-01-11T08:39:06;6.63;;;4.45;;
63312;SDS011;49442;45.640;13.812;2024-01-11T08:41:33;6.70;;;3.42;;
63312;SDS011;49442;45.640;13.812;2024-01-11T08:44:01;7.00;;;4.50;;
63312;SDS011;49442;45.640;13.812;2024-01-11T08:46:27;10.77;;;3.90;;
63312;SDS011;49442;45.640;13.812;2024-01-11T08:48:53;4.60;;;3.17;;
63312;SDS011;49442;45.640;13.812;2024-01-11T08:51:21;5.38;;;3.58;;
63312;SDS011;49442;45.640;13.812;2024-01-11T08:53:46;6.95;;;3.80;;
63312;SDS011;49442;45.640;13.812;2024-01-11T08:56:12;5.18;;;3.45;;
63312;SDS011;49442;45.640;13.812;2024-01-11T08:58:41;5.32;;;3.70;;
63312;SDS011;49442;45.640;13.812;2024-01-11T09:01:07;6.25;;;4.15;;
63312;SDS011;49442;45.640;13.812;2024-01-11T09:03:35;5.30;;;3.95;;
63312;SDS011;49442;45.640;13.812;2024-01-11T09:06:04;5.53;;;3.45;;
63312;SDS011;49442;45.640;13.812;2024-01-11T09:08:30;6.68;;;4.57;;
63312;SDS011;49442;45.640;13.812;2024-01-11T09:10:56;8.30;;;4.13;;
63312;SDS011;49442;45.640;13.812;2024-01-11T09:13:23;5.25;;;4.10;;
63312;SDS011;49442;45.640;13.812;2024-01-11T09:15:51;7.22;;;3.95;;
63312;SDS011;49442;45.640;13.812;2024-01-11T09:18:17;7.35;;;4.18;;
63312;SDS011;49442;45.640;13.812;2024-01-11T09:20:43;5.22;;;3.60;;
63312;SDS011;49442;45.640;13.812;2024-01-11T09:23:09;6.57;;;3.90;;
63312;SDS011;49442;45.640;13.812;2024-01-11T09:25:34;15.65;;;4.15;;
63312;SDS011;49442;45.640;13.812;2024-01-11T09:28:00;6.63;;;3.53;;
63312;SDS011;49442;45.640;13.812;2024-01-11T09:30:26;6.40;;;4.15;;
63312;SDS011;49442;45.640;13.812;2024-01-11T09:32:52;5.07;;;3.78;;
63312;SDS011;49442;45.640;13.812;2024-01-11T09:35:18;5.20;;;3.55;;
63312;SDS011;49442;45.640;13.812;2024-01-11T09:37:43;6.40;;;3.63;;
63312;SDS011;49442;45.640;13.812;2024-01-11T09:40:11;4.72;;;3.40;;
63312;SDS011;49442;45.640;13.812;2024-01-11T09:42:38;4.95;;;3.38;;
63312;SDS011;49442;45.640;13.812;2024-01-11T09:45:07;5.60;;;3.38;;
63312;SDS011;49442;45.640;13.812;2024-01-11T09:47:41;5.35;;;3.58;;
63312;SDS011;49442;45.640;13.812;2024-01-11T09:50:07;5.70;;;3.90;;
63312;SDS011;49442;45.640;13.812;2024-01-11T09:52:33;6.35;;;3.63;;
63312;SDS011;49442;45.640;13.812;2024-01-11T09:54:59;5.03;;;3.70;;
63312;SDS011;49442;45.640;13.812;2024-01-11T09:57:28;5.55;;;3.80;;
63312;SDS011;49442;45.640;13.812;2024-01-11T09:59:56;4.78;;;3.35;;
63312;SDS011;49442;45.640;13.812;2024-01-11T10:02:25;6.43;;;3.95;;
63312;SDS011;49442;45.640;13.812;2024-01-11T10:04:52;5.28;;;3.88;;
63312;SDS011;49442;45.640;13.812;2024-01-11T10:07:18;5.53;;;3.55;;
63312;SDS011;49442;45.640;13.812;2024-01-11T10:09:47;6.13;;;3.90;;
63312;SDS011;49442;45.640;13.812;2024-01-11T10:12:13;6.20;;;3.90;;
63312;SDS011;49442;45.640;13.812;2024-01-11T10:14:39;5.28;;;3.63;;
63312;SDS011;49442;45.640;13.812;2024-01-11T10:17:05;5.70;;;3.83;;
63312;SDS011;49442;45.640;13.812;2024-01-11T10:19:31;4.72;;;3.80;;
63312;SDS011;49442;45.640;13.812;2024-01-11T10:21:57;6.20;;;3.63;;
63312;SDS011;49442;45.640;13.812;2024-01-11T10:24:26;6.07;;;4.20;;
63312;SDS011;49442;45.640;13.812;2024-01-11T10:27:00;5.63;;;3.83;;
63312;SDS011;49442;45.640;13.812;2024-01-11T10:29:32;5.95;;;3.95;;
63312;SDS011;49442;45.640;13.812;2024-01-11T10:32:00;6.13;;;3.30;;
63312;SDS011;49442;45.640;13.812;2024-01-11T10:34:26;6.20;;;3.28;;
63312;SDS011;49442;45.640;13.812;2024-01-11T10:36:51;5.93;;;3.72;;
63312;SDS011;49442;45.640;13.812;2024-01-11T10:39:17;4.93;;;3.33;;
63312;SDS011;49442;45.640;13.812;2024-01-11T10:41:47;7.50;;;2.95;;
63312;SDS011;49442;45.640;13.812;2024-01-11T10:44:19;3.95;;;2.90;;
63312;SDS011;49442;45.640;13.812;2024-01-11T10:46:47;4.13;;;3.00;;
63312;SDS011;49442;45.640;13.812;2024-01-11T10:49:20;3.67;;;3.05;;
63312;SDS011;49442;45.640;13.812;2024-01-11T10:51:55;4.38;;;3.03;;
63312;SDS011;49442;45.640;13.812;2024-01-11T10:54:26;4.45;;;3.22;;
63312;SDS011;49442;45.640;13.812;2024-01-11T10:56:53;5.90;;;3.38;;
63312;SDS011;49442;45.640;13.812;2024-01-11T10:59:21;5.05;;;3.72;;
63312;SDS011;49442;45.640;13.812;2024-01-11T11:01:53;4.45;;;3.35;;
63312;SDS011;49442;45.640;13.812;2024-01-11T11:04:22;4.85;;;3.45;;
63312;SDS011;49442;45.640;13.812;2024-01-11T11:06:49;4.00;;;3.13;;
63312;SDS011;49442;45.640;13.812;2024-01-11T11:09:20;5.55;;;3.50;;
63312;SDS011;49442;45.640;13.812;2024-01-11T11:11:47;4.80;;;3.47;;
63312;SDS011;49442;45.640;13.812;2024-01-11T11:14:14;7.57;;;3.45;;
63312;SDS011;49442;45.640;13.812;2024-01-11T11:16:40;5.70;;;3.72;;
63312;SDS011;49442;45.640;13.812;2024-01-11T11:19:07;9.45;;;4.30;;
63312;SDS011;49442;45.640;13.812;2024-01-11T11:21:41;5.15;;;3.40;;
63312;SDS011;49442;45.640;13.812;2024-01-11T11:24:07;10.00;;;4.05;;
63312;SDS011;49442;45.640;13.812;2024-01-11T11:26:34;5.75;;;4.03;;
63312;SDS011;49442;45.640;13.812;2024-01-11T11:29:00;5.70;;;3.30;;
63312;SDS011;49442;45.640;13.812;2024-01-11T11:31:35;5.32;;;3.60;;
63312;SDS011;49442;45.640;13.812;2024-01-11T11:34:05;5.28;;;3.60;;
63312;SDS011;49442;45.640;13.812;2024-01-11T11:36:32;7.82;;;3.55;;
63312;SDS011;49442;45.640;13.812;2024-01-11T11:38:59;4.75;;;3.25;;
63312;SDS011;49442;45.640;13.812;2024-01-11T11:41:26;5.18;;;3.42;;
63312;SDS011;49442;45.640;13.812;2024-01-11T11:43:52;5.93;;;3.50;;
63312;SDS011;49442;45.640;13.812;2024-01-11T11:46:18;9.95;;;3.60;;
63312;SDS011;49442;45.640;13.812;2024-01-11T11:48:50;5.43;;;3.47;;
63312;SDS011;49442;45.640;13.812;2024-01-11T11:51:20;4.63;;;3.28;;
63312;SDS011;49442;45.640;13.812;2024-01-11T11:53:47;7.90;;;3.50;;
63312;SDS011;49442;45.640;13.812;2024-01-11T11:56:16;5.93;;;3.58;;
63312;SDS011;49442;45.640;13.812;2024-01-11T11:58:45;5.67;;;3.43;;
63312;SDS011;49442;45.640;13.812;2024-01-11T12:01:13;4.28;;;3.05;;
63312;SDS011;49442;45.640;13.812;2024-01-11T12:03:40;5.50;;;3.15;;
63312;SDS011;49442;45.640;13.812;2024-01-11T12:06:08;5.45;;;3.22;;
63312;SDS011;49442;45.640;13.812;2024-01-11T12:08:35;5.68;;;3.60;;
63312;SDS011;49442;45.640;13.812;2024-01-11T12:11:02;7.57;;;3.25;;
63312;SDS011;49442;45.640;13.812;2024-01-11T12:13:29;5.07;;;3.42;;
63312;SDS011;49442;45.640;13.812;2024-01-11T12:15:57;6.30;;;3.75;;
63312;SDS011;49442;45.640;13.812;2024-01-11T12:18:23;3.72;;;3.05;;
63312;SDS011;49442;45.640;13.812;2024-01-11T12:20:49;6.05;;;3.92;;
63312;SDS011;49442;45.640;13.812;2024-01-11T12:23:18;6.00;;;3.60;;
63312;SDS011;49442;45.640;13.812;2024-01-11T12:25:44;8.98;;;3.80;;
63312;SDS011;49442;45.640;13.812;2024-01-11T12:28:10;5.95;;;3.65;;
63312;SDS011;49442;45.640;13.812;2024-01-11T12:30:36;7.03;;;4.07;;
63312;SDS011;49442;45.640;13.812;2024-01-11T12:33:03;6.35;;;4.10;;
63312;SDS011;49442;45.640;13.812;2024-01-11T12:35:30;5.40;;;3.53;;
63312;SDS011;49442;45.640;13.812;2024-01-11T12:40:28;5.15;;;3.60;;
63312;SDS011;49442;45.640;13.812;2024-01-11T12:42:57;9.95;;;4.32;;
63312;SDS011;49442;45.640;13.812;2024-01-11T12:45:25;7.53;;;3.95;;
63312;SDS011;49442;45.640;13.812;2024-01-11T12:47:54;12.27;;;3.88;;
63312;SDS011;49442;45.640;13.812;2024-01-11T12:50:22;12.02;;;5.10;;
63312;SDS011;49442;45.640;13.812;2024-01-11T12:55:32;6.15;;;3.90;;
63312;SDS011;49442;45.640;13.812;2024-01-11T12:58:07;6.03;;;3.60;;
63312;SDS011;49442;45.640;13.812;2024-01-11T13:00:36;6.57;;;3.80;;
63312;SDS011;49442;45.640;13.812;2024-01-11T13:03:02;5.70;;;4.03;;
63312;SDS011;49442;45.640;13.812;2024-01-11T13:05:29;7.57;;;4.63;;
63312;SDS011;49442;45.640;13.812;2024-01-11T13:08:07;6.80;;;3.80;;
63312;SDS011;49442;45.640;13.812;2024-01-11T13:10:34;5.53;;;3.83;;
63312;SDS011;49442;45.640;13.812;2024-01-11T13:13:00;6.75;;;3.85;;
63312;SDS011;49442;45.640;13.812;2024-01-11T13:15:27;10.13;;;4.28;;
63312;SDS011;49442;45.640;13.812;2024-01-11T13:17:54;7.68;;;4.22;;
63312;SDS011;49442;45.640;13.812;2024-01-11T13:20:21;10.50;;;4.88;;
63312;SDS011;49442;45.640;13.812;2024-01-11T13:22:46;7.60;;;3.80;;
63312;SDS011;49442;45.640;13.812;2024-01-11T13:25:12;11.07;;;3.90;;
63312;SDS011;49442;45.640;13.812;2024-01-11T13:27:38;7.30;;;4.15;;
63312;SDS011;49442;45.640;13.812;2024-01-11T13:30:04;5.93;;;4.43;;
63312;SDS011;49442;45.640;13.812;2024-01-11T13:32:32;5.97;;;3.75;;
63312;SDS011;49442;45.640;13.812;2024-01-11T13:34:58;6.40;;;4.18;;
63312;SDS011;49442;45.640;13.812;2024-01-11T13:37:24;8.20;;;4.22;;
63312;SDS011;49442;45.640;13.812;2024-01-11T13:39:50;7.78;;;4.85;;
63312;SDS011;49442;45.640;13.812;2024-01-11T13:42:16;6.90;;;4.20;;
63312;SDS011;49442;45.640;13.812;2024-01-11T13:44:41;6.18;;;3.65;;
63312;SDS011;49442;45.640;13.812;2024-01-11T13:47:07;8.70;;;4.78;;
63312;SDS011;49442;45.640;13.812;2024-01-11T13:49:33;6.80;;;3.97;;
63312;SDS011;49442;45.640;13.812;2024-01-11T13:51:59;7.18;;;4.15;;
63312;SDS011;49442;45.640;13.812;2024-01-11T13:54:25;6.38;;;4.03;;
63312;SDS011;49442;45.640;13.812;2024-01-11T13:56:51;5.68;;;3.97;;
63312;SDS011;49442;45.640;13.812;2024-01-11T13:59:17;7.32;;;4.72;;
63312;SDS011;49442;45.640;13.812;2024-01-11T14:01:43;10.07;;;5.78;;
63312;SDS011;49442;45.640;13.812;2024-01-11T14:04:09;7.57;;;4.68;;
63312;SDS011;49442;45.640;13.812;2024-01-11T14:06:35;8.00;;;4.00;;
63312;SDS011;49442;45.640;13.812;2024-01-11T14:09:00;6.32;;;4.18;;
63312;SDS011;49442;45.640;13.812;2024-01-11T14:11:28;6.70;;;4.53;;
63312;SDS011;49442;45.640;13.812;2024-01-11T14:13:54;8.25;;;4.72;;
63312;SDS011;49442;45.640;13.812;2024-01-11T14:16:23;5.97;;;4.57;;
63312;SDS011;49442;45.640;13.812;2024-01-11T14:18:49;4.38;;;3.67;;
63312;SDS011;49442;45.640;13.812;2024-01-11T14:21:14;6.82;;;3.88;;
63312;SDS011;49442;45.640;13.812;2024-01-11T14:23:40;6.78;;;4.05;;
63312;SDS011;49442;45.640;13.812;2024-01-11T14:26:06;6.18;;;3.60;;
63312;SDS011;49442;45.640;13.812;2024-01-11T14:28:31;6.90;;;3.08;;
63312;SDS011;49442;45.640;13.812;2024-01-11T14:30:57;5.90;;;3.70;;
63312;SDS011;49442;45.640;13.812;2024-01-11T14:33:23;8.27;;;3.63;;
63312;SDS011;49442;45.640;13.812;2024-01-11T14:35:48;5.88;;;3.97;;